sensor_id;sensor_type;location;lat;lon;timestamp;temperature;humidity
37456;DHT22;23316;50.718;7.328;2022-11-20T00:00:40;7.30;53.20
37456;DHT22;23316;50.718;7.328;2022-11-20T00:03:07;7.30;53.30
37456;DHT22;23316;50.718;7.328;2022-11-20T00:05:35;7.30;53.20
37456;DHT22;23316;50.718;7.328;2022-11-20T00:08:04;7.30;53.20
37456;DHT22;23316;50.718;7.328;2022-11-20T00:10:31;7.30;53.20
37456;DHT22;23316;50.718;7.328;2022-11-20T00:12:58;7.30;53.20
37456;DHT22;23316;50.718;7.328;2022-11-20T00:15:25;7.30;53.20
37456;DHT22;23316;50.718;7.328;2022-11-20T00:17:52;7.30;53.30
37456;DHT22;23316;50.718;7.328;2022-11-20T00:20:20;7.30;53.20
37456;DHT22;23316;50.718;7.328;2022-11-20T00:22:47;7.30;53.20
37456;DHT22;23316;50.718;7.328;2022-11-20T00:25:16;7.30;53.20
37456;DHT22;23316;50.718;7.328;2022-11-20T00:27:43;7.20;53.10
37456;DHT22;23316;50.718;7.328;2022-11-20T00:30:10;7.20;53.10
37456;DHT22;23316;50.718;7.328;2022-11-20T00:32:38;7.30;53.30
37456;DHT22;23316;50.718;7.328;2022-11-20T00:35:06;7.30;53.20
37456;DHT22;23316;50.718;7.328;2022-11-20T00:37:33;7.20;53.20
37456;DHT22;23316;50.718;7.328;2022-11-20T00:40:00;7.20;53.20
37456;DHT22;23316;50.718;7.328;2022-11-20T00:42:29;7.20;53.30
37456;DHT22;23316;50.718;7.328;2022-11-20T00:44:58;7.20;53.30
37456;DHT22;23316;50.718;7.328;2022-11-20T00:47:25;7.20;53.30
37456;DHT22;23316;50.718;7.328;2022-11-20T00:49:53;7.20;53.30
37456;DHT22;23316;50.718;7.328;2022-11-20T00:52:20;7.30;53.40
37456;DHT22;23316;50.718;7.328;2022-11-20T00:54:47;7.30;53.40
37456;DHT22;23316;50.718;7.328;2022-11-20T00:57:14;7.30;53.50
37456;DHT22;23316;50.718;7.328;2022-11-20T00:59:43;7.20;53.90
37456;DHT22;23316;50.718;7.328;2022-11-20T01:02:10;7.30;53.50
37456;DHT22;23316;50.718;7.328;2022-11-20T01:04:37;7.30;53.50
37456;DHT22;23316;50.718;7.328;2022-11-20T01:07:04;7.30;53.50
37456;DHT22;23316;50.718;7.328;2022-11-20T01:09:32;7.30;53.60
37456;DHT22;23316;50.718;7.328;2022-11-20T01:11:59;7.30;53.60
37456;DHT22;23316;50.718;7.328;2022-11-20T01:14:26;7.30;53.70
37456;DHT22;23316;50.718;7.328;2022-11-20T01:16:55;7.30;53.70
37456;DHT22;23316;50.718;7.328;2022-11-20T01:19:23;7.30;53.70
37456;DHT22;23316;50.718;7.328;2022-11-20T01:21:52;7.30;53.70
37456;DHT22;23316;50.718;7.328;2022-11-20T01:24:20;7.30;53.70
37456;DHT22;23316;50.718;7.328;2022-11-20T01:26:49;7.30;53.80
37456;DHT22;23316;50.718;7.328;2022-11-20T01:29:19;7.30;53.80
37456;DHT22;23316;50.718;7.328;2022-11-20T01:31:46;7.30;53.80
37456;DHT22;23316;50.718;7.328;2022-11-20T01:34:17;7.20;53.80
37456;DHT22;23316;50.718;7.328;2022-11-20T01:36:45;7.30;53.80
37456;DHT22;23316;50.718;7.328;2022-11-20T01:39:15;7.30;53.80
37456;DHT22;23316;50.718;7.328;2022-11-20T01:41:43;7.30;53.80
37456;DHT22;23316;50.718;7.328;2022-11-20T01:44:47;7.30;53.90
37456;DHT22;23316;50.718;7.328;2022-11-20T01:47:18;7.30;53.80
37456;DHT22;23316;50.718;7.328;2022-11-20T01:49:52;7.30;53.80
37456;DHT22;23316;50.718;7.328;2022-11-20T01:52:21;7.30;53.80
37456;DHT22;23316;50.718;7.328;2022-11-20T01:54:52;7.30;53.80
37456;DHT22;23316;50.718;7.328;2022-11-20T01:57:22;7.20;53.80
37456;DHT22;23316;50.718;7.328;2022-11-20T01:59:55;7.20;53.90
37456;DHT22;23316;50.718;7.328;2022-11-20T02:02:24;7.20;53.90
37456;DHT22;23316;50.718;7.328;2022-11-20T02:04:54;7.20;53.90
37456;DHT22;23316;50.718;7.328;2022-11-20T02:07:23;7.30;53.90
37456;DHT22;23316;50.718;7.328;2022-11-20T02:09:51;7.20;53.90
37456;DHT22;23316;50.718;7.328;2022-11-20T02:12:18;7.20;53.90
37456;DHT22;23316;50.718;7.328;2022-11-20T02:15:04;7.20;54.00
37456;DHT22;23316;50.718;7.328;2022-11-20T02:17:31;7.30;54.00
37456;DHT22;23316;50.718;7.328;2022-11-20T02:20:00;7.30;54.10
37456;DHT22;23316;50.718;7.328;2022-11-20T02:22:30;7.20;54.00
37456;DHT22;23316;50.718;7.328;2022-11-20T02:25:02;7.20;53.90
37456;DHT22;23316;50.718;7.328;2022-11-20T02:27:30;7.20;53.90
37456;DHT22;23316;50.718;7.328;2022-11-20T02:30:00;7.20;53.70
37456;DHT22;23316;50.718;7.328;2022-11-20T02:32:30;7.10;53.50
37456;DHT22;23316;50.718;7.328;2022-11-20T02:34:58;7.00;53.50
37456;DHT22;23316;50.718;7.328;2022-11-20T02:37:30;7.00;53.50
37456;DHT22;23316;50.718;7.328;2022-11-20T02:40:00;6.90;53.60
37456;DHT22;23316;50.718;7.328;2022-11-20T02:42:27;6.80;53.70
37456;DHT22;23316;50.718;7.328;2022-11-20T02:44:55;6.70;53.90
37456;DHT22;23316;50.718;7.328;2022-11-20T02:47:22;6.70;54.10
37456;DHT22;23316;50.718;7.328;2022-11-20T02:49:49;6.70;54.30
37456;DHT22;23316;50.718;7.328;2022-11-20T02:52:16;6.70;54.50
37456;DHT22;23316;50.718;7.328;2022-11-20T02:54:43;6.70;54.70
37456;DHT22;23316;50.718;7.328;2022-11-20T02:57:12;6.70;54.80
37456;DHT22;23316;50.718;7.328;2022-11-20T02:59:39;6.70;54.80
37456;DHT22;23316;50.718;7.328;2022-11-20T03:02:07;6.70;54.80
37456;DHT22;23316;50.718;7.328;2022-11-20T03:04:34;6.70;54.90
37456;DHT22;23316;50.718;7.328;2022-11-20T03:07:01;6.80;54.90
37456;DHT22;23316;50.718;7.328;2022-11-20T03:09:29;6.80;54.90
37456;DHT22;23316;50.718;7.328;2022-11-20T03:11:56;6.90;55.00
37456;DHT22;23316;50.718;7.328;2022-11-20T03:14:25;6.90;54.90
37456;DHT22;23316;50.718;7.328;2022-11-20T03:16:52;6.90;54.90
37456;DHT22;23316;50.718;7.328;2022-11-20T03:19:19;6.90;54.80
37456;DHT22;23316;50.718;7.328;2022-11-20T03:21:47;6.90;54.80
37456;DHT22;23316;50.718;7.328;2022-11-20T03:24:14;7.00;54.80
37456;DHT22;23316;50.718;7.328;2022-11-20T03:26:42;7.00;54.80
37456;DHT22;23316;50.718;7.328;2022-11-20T03:29:09;7.00;54.80
37456;DHT22;23316;50.718;7.328;2022-11-20T03:31:39;7.00;54.80
37456;DHT22;23316;50.718;7.328;2022-11-20T03:34:07;7.10;54.90
37456;DHT22;23316;50.718;7.328;2022-11-20T03:36:36;7.10;54.90
37456;DHT22;23316;50.718;7.328;2022-11-20T03:39:04;7.00;54.80
37456;DHT22;23316;50.718;7.328;2022-11-20T03:41:35;7.10;54.90
37456;DHT22;23316;50.718;7.328;2022-11-20T03:44:05;7.10;54.90
37456;DHT22;23316;50.718;7.328;2022-11-20T03:46:33;7.10;54.90
37456;DHT22;23316;50.718;7.328;2022-11-20T03:49:02;7.10;54.80
37456;DHT22;23316;50.718;7.328;2022-11-20T03:51:30;7.20;54.80
37456;DHT22;23316;50.718;7.328;2022-11-20T03:54:00;7.10;54.80
37456;DHT22;23316;50.718;7.328;2022-11-20T03:56:29;7.20;54.80
37456;DHT22;23316;50.718;7.328;2022-11-20T03:58:57;7.20;54.80
37456;DHT22;23316;50.718;7.328;2022-11-20T04:01:26;7.20;54.80
37456;DHT22;23316;50.718;7.328;2022-11-20T04:07:17;7.20;54.80
37456;DHT22;23316;50.718;7.328;2022-11-20T04:09:44;7.20;54.80
37456;DHT22;23316;50.718;7.328;2022-11-20T04:12:11;7.20;54.80
37456;DHT22;23316;50.718;7.328;2022-11-20T04:14:38;7.20;54.80
37456;DHT22;23316;50.718;7.328;2022-11-20T04:17:06;7.30;54.80
37456;DHT22;23316;50.718;7.328;2022-11-20T04:19:33;7.30;54.80
37456;DHT22;23316;50.718;7.328;2022-11-20T04:22:00;7.30;54.80
37456;DHT22;23316;50.718;7.328;2022-11-20T04:24:28;7.30;54.80
37456;DHT22;23316;50.718;7.328;2022-11-20T04:26:55;7.30;54.90
37456;DHT22;23316;50.718;7.328;2022-11-20T04:29:23;7.30;54.90
37456;DHT22;23316;50.718;7.328;2022-11-20T04:31:50;7.30;54.90
37456;DHT22;23316;50.718;7.328;2022-11-20T04:34:17;7.30;54.90
37456;DHT22;23316;50.718;7.328;2022-11-20T04:36:44;7.30;54.90
37456;DHT22;23316;50.718;7.328;2022-11-20T04:39:13;7.30;54.90
37456;DHT22;23316;50.718;7.328;2022-11-20T04:41:42;7.30;54.90
37456;DHT22;23316;50.718;7.328;2022-11-20T04:44:09;7.30;54.90
37456;DHT22;23316;50.718;7.328;2022-11-20T04:46:38;7.30;54.90
37456;DHT22;23316;50.718;7.328;2022-11-20T04:49:06;7.30;54.90
37456;DHT22;23316;50.718;7.328;2022-11-20T04:51:34;7.40;55.00
37456;DHT22;23316;50.718;7.328;2022-11-20T04:54:01;7.30;54.90
37456;DHT22;23316;50.718;7.328;2022-11-20T04:56:28;7.30;55.00
37456;DHT22;23316;50.718;7.328;2022-11-20T04:59:00;7.40;55.00
37456;DHT22;23316;50.718;7.328;2022-11-20T05:01:28;7.30;55.00
37456;DHT22;23316;50.718;7.328;2022-11-20T05:03:56;7.30;55.00
37456;DHT22;23316;50.718;7.328;2022-11-20T05:06:23;7.40;55.10
37456;DHT22;23316;50.718;7.328;2022-11-20T05:08:50;7.40;55.20
37456;DHT22;23316;50.718;7.328;2022-11-20T05:11:19;7.40;55.20
37456;DHT22;23316;50.718;7.328;2022-11-20T05:13:47;7.40;55.20
37456;DHT22;23316;50.718;7.328;2022-11-20T05:16:17;7.40;55.20
37456;DHT22;23316;50.718;7.328;2022-11-20T05:18:45;7.40;55.20
37456;DHT22;23316;50.718;7.328;2022-11-20T05:21:13;7.40;55.30
37456;DHT22;23316;50.718;7.328;2022-11-20T05:23:41;7.40;55.20
37456;DHT22;23316;50.718;7.328;2022-11-20T05:26:13;7.40;55.30
37456;DHT22;23316;50.718;7.328;2022-11-20T05:28:40;7.40;55.30
37456;DHT22;23316;50.718;7.328;2022-11-20T05:31:09;7.40;55.30
37456;DHT22;23316;50.718;7.328;2022-11-20T05:33:39;7.40;55.30
37456;DHT22;23316;50.718;7.328;2022-11-20T05:36:07;7.40;55.30
37456;DHT22;23316;50.718;7.328;2022-11-20T05:38:35;7.40;55.40
37456;DHT22;23316;50.718;7.328;2022-11-20T05:41:06;7.50;55.40
37456;DHT22;23316;50.718;7.328;2022-11-20T05:43:33;7.50;55.40
37456;DHT22;23316;50.718;7.328;2022-11-20T05:46:01;7.40;55.40
37456;DHT22;23316;50.718;7.328;2022-11-20T05:48:29;7.50;55.40
37456;DHT22;23316;50.718;7.328;2022-11-20T05:50:59;7.50;55.50
37456;DHT22;23316;50.718;7.328;2022-11-20T05:53:26;7.50;55.50
37456;DHT22;23316;50.718;7.328;2022-11-20T05:55:57;7.50;55.50
37456;DHT22;23316;50.718;7.328;2022-11-20T05:58:25;7.50;55.60
37456;DHT22;23316;50.718;7.328;2022-11-20T06:00:52;7.50;55.50
37456;DHT22;23316;50.718;7.328;2022-11-20T06:03:19;7.50;55.60
37456;DHT22;23316;50.718;7.328;2022-11-20T06:05:47;7.50;55.60
37456;DHT22;23316;50.718;7.328;2022-11-20T06:08:15;7.50;55.60
37456;DHT22;23316;50.718;7.328;2022-11-20T06:10:43;7.50;55.60
37456;DHT22;23316;50.718;7.328;2022-11-20T06:13:10;7.50;55.60
37456;DHT22;23316;50.718;7.328;2022-11-20T06:15:37;7.50;55.50
37456;DHT22;23316;50.718;7.328;2022-11-20T06:18:04;7.50;55.40
37456;DHT22;23316;50.718;7.328;2022-11-20T06:20:31;7.40;55.30
37456;DHT22;23316;50.718;7.328;2022-11-20T06:22:59;7.40;55.30
37456;DHT22;23316;50.718;7.328;2022-11-20T06:25:27;7.30;55.40
37456;DHT22;23316;50.718;7.328;2022-11-20T06:27:54;7.20;55.60
37456;DHT22;23316;50.718;7.328;2022-11-20T06:30:22;7.10;55.70
37456;DHT22;23316;50.718;7.328;2022-11-20T06:32:49;7.00;55.90
37456;DHT22;23316;50.718;7.328;2022-11-20T06:35:16;6.90;56.10
37456;DHT22;23316;50.718;7.328;2022-11-20T06:37:43;6.80;56.30
37456;DHT22;23316;50.718;7.328;2022-11-20T06:40:11;6.70;56.50
37456;DHT22;23316;50.718;7.328;2022-11-20T06:42:40;6.70;56.70
37456;DHT22;23316;50.718;7.328;2022-11-20T06:45:08;6.70;56.80
37456;DHT22;23316;50.718;7.328;2022-11-20T06:47:35;6.60;56.90
37456;DHT22;23316;50.718;7.328;2022-11-20T06:50:03;6.50;57.00
37456;DHT22;23316;50.718;7.328;2022-11-20T06:52:30;6.50;57.20
37456;DHT22;23316;50.718;7.328;2022-11-20T06:54:58;6.50;57.30
37456;DHT22;23316;50.718;7.328;2022-11-20T06:57:25;6.40;57.40
37456;DHT22;23316;50.718;7.328;2022-11-20T06:59:53;6.40;57.50
37456;DHT22;23316;50.718;7.328;2022-11-20T07:02:21;6.40;57.50
37456;DHT22;23316;50.718;7.328;2022-11-20T07:04:48;6.30;57.70
37456;DHT22;23316;50.718;7.328;2022-11-20T07:07:15;6.40;57.70
37456;DHT22;23316;50.718;7.328;2022-11-20T07:09:42;6.40;57.70
37456;DHT22;23316;50.718;7.328;2022-11-20T07:12:09;6.30;57.70
37456;DHT22;23316;50.718;7.328;2022-11-20T07:14:37;6.30;57.70
37456;DHT22;23316;50.718;7.328;2022-11-20T07:17:05;6.30;57.60
37456;DHT22;23316;50.718;7.328;2022-11-20T07:19:32;6.30;57.70
37456;DHT22;23316;50.718;7.328;2022-11-20T07:22:00;6.30;57.80
37456;DHT22;23316;50.718;7.328;2022-11-20T07:24:27;6.30;57.70
37456;DHT22;23316;50.718;7.328;2022-11-20T07:26:54;6.30;57.80
37456;DHT22;23316;50.718;7.328;2022-11-20T07:29:21;6.20;57.70
37456;DHT22;23316;50.718;7.328;2022-11-20T07:31:48;6.20;57.80
37456;DHT22;23316;50.718;7.328;2022-11-20T07:34:17;6.20;57.80
37456;DHT22;23316;50.718;7.328;2022-11-20T07:36:45;6.20;57.90
37456;DHT22;23316;50.718;7.328;2022-11-20T07:39:13;6.20;57.90
37456;DHT22;23316;50.718;7.328;2022-11-20T07:41:40;6.20;57.90
37456;DHT22;23316;50.718;7.328;2022-11-20T07:44:07;6.30;57.90
37456;DHT22;23316;50.718;7.328;2022-11-20T07:46:34;6.30;57.90
37456;DHT22;23316;50.718;7.328;2022-11-20T07:49:02;6.40;58.00
37456;DHT22;23316;50.718;7.328;2022-11-20T07:51:30;6.40;57.90
37456;DHT22;23316;50.718;7.328;2022-11-20T07:53:57;6.50;58.00
37456;DHT22;23316;50.718;7.328;2022-11-20T07:56:25;6.50;58.00
37456;DHT22;23316;50.718;7.328;2022-11-20T07:58:52;6.60;57.90
37456;DHT22;23316;50.718;7.328;2022-11-20T08:01:19;6.60;57.90
37456;DHT22;23316;50.718;7.328;2022-11-20T08:03:46;6.70;58.00
37456;DHT22;23316;50.718;7.328;2022-11-20T08:06:14;6.80;57.90
37456;DHT22;23316;50.718;7.328;2022-11-20T08:08:42;6.80;57.80
37456;DHT22;23316;50.718;7.328;2022-11-20T08:11:10;6.80;57.80
37456;DHT22;23316;50.718;7.328;2022-11-20T08:13:54;6.90;57.70
37456;DHT22;23316;50.718;7.328;2022-11-20T08:16:44;6.90;57.70
37456;DHT22;23316;50.718;7.328;2022-11-20T08:19:12;7.00;57.70
37456;DHT22;23316;50.718;7.328;2022-11-20T08:21:40;7.00;57.60
37456;DHT22;23316;50.718;7.328;2022-11-20T08:24:09;7.10;57.70
37456;DHT22;23316;50.718;7.328;2022-11-20T08:26:37;7.10;57.60
37456;DHT22;23316;50.718;7.328;2022-11-20T08:29:05;7.20;57.60
37456;DHT22;23316;50.718;7.328;2022-11-20T08:31:33;7.20;57.60
37456;DHT22;23316;50.718;7.328;2022-11-20T08:34:00;7.20;57.60
37456;DHT22;23316;50.718;7.328;2022-11-20T08:36:27;7.30;57.60
37456;DHT22;23316;50.718;7.328;2022-11-20T08:38:55;7.30;57.60
37456;DHT22;23316;50.718;7.328;2022-11-20T08:41:24;7.40;57.60
37456;DHT22;23316;50.718;7.328;2022-11-20T08:43:55;7.40;57.60
37456;DHT22;23316;50.718;7.328;2022-11-20T08:46:23;7.40;57.60
37456;DHT22;23316;50.718;7.328;2022-11-20T08:48:50;7.50;57.60
37456;DHT22;23316;50.718;7.328;2022-11-20T08:51:18;7.50;57.60
37456;DHT22;23316;50.718;7.328;2022-11-20T08:53:46;7.50;57.60
37456;DHT22;23316;50.718;7.328;2022-11-20T08:56:15;7.60;57.60
37456;DHT22;23316;50.718;7.328;2022-11-20T08:58:44;7.60;57.50
37456;DHT22;23316;50.718;7.328;2022-11-20T09:01:11;7.60;57.40
37456;DHT22;23316;50.718;7.328;2022-11-20T09:03:38;7.70;57.40
37456;DHT22;23316;50.718;7.328;2022-11-20T09:06:07;7.70;57.30
37456;DHT22;23316;50.718;7.328;2022-11-20T09:08:35;7.70;57.20
37456;DHT22;23316;50.718;7.328;2022-11-20T09:11:03;7.70;57.20
37456;DHT22;23316;50.718;7.328;2022-11-20T09:13:32;7.80;57.30
37456;DHT22;23316;50.718;7.328;2022-11-20T09:16:03;7.80;57.20
37456;DHT22;23316;50.718;7.328;2022-11-20T09:18:32;7.80;57.10
37456;DHT22;23316;50.718;7.328;2022-11-20T09:21:01;7.80;57.00
37456;DHT22;23316;50.718;7.328;2022-11-20T09:23:31;7.80;56.90
37456;DHT22;23316;50.718;7.328;2022-11-20T09:26:01;7.90;56.90
37456;DHT22;23316;50.718;7.328;2022-11-20T09:28:29;7.90;56.90
37456;DHT22;23316;50.718;7.328;2022-11-20T09:30:57;7.90;56.80
37456;DHT22;23316;50.718;7.328;2022-11-20T09:33:25;7.90;56.80
37456;DHT22;23316;50.718;7.328;2022-11-20T09:35:53;8.00;56.70
37456;DHT22;23316;50.718;7.328;2022-11-20T09:38:20;7.90;56.70
37456;DHT22;23316;50.718;7.328;2022-11-20T09:40:52;8.00;56.70
37456;DHT22;23316;50.718;7.328;2022-11-20T09:43:29;8.00;56.80
37456;DHT22;23316;50.718;7.328;2022-11-20T09:46:06;8.00;56.80
37456;DHT22;23316;50.718;7.328;2022-11-20T09:48:53;8.10;56.90
37456;DHT22;23316;50.718;7.328;2022-11-20T09:51:31;8.10;56.90
37456;DHT22;23316;50.718;7.328;2022-11-20T09:54:13;8.20;56.90
37456;DHT22;23316;50.718;7.328;2022-11-20T09:56:44;8.20;56.80
37456;DHT22;23316;50.718;7.328;2022-11-20T09:59:23;8.20;56.80
37456;DHT22;23316;50.718;7.328;2022-11-20T10:01:54;8.20;56.80
37456;DHT22;23316;50.718;7.328;2022-11-20T10:04:24;8.30;56.80
37456;DHT22;23316;50.718;7.328;2022-11-20T10:06:56;8.30;56.80
37456;DHT22;23316;50.718;7.328;2022-11-20T10:09:29;8.30;56.80
37456;DHT22;23316;50.718;7.328;2022-11-20T10:12:10;8.30;56.80
37456;DHT22;23316;50.718;7.328;2022-11-20T10:14:50;8.40;56.90
37456;DHT22;23316;50.718;7.328;2022-11-20T10:17:32;8.40;56.90
37456;DHT22;23316;50.718;7.328;2022-11-20T10:20:14;8.40;56.80
37456;DHT22;23316;50.718;7.328;2022-11-20T10:22:54;8.50;56.80
37456;DHT22;23316;50.718;7.328;2022-11-20T10:25:26;8.50;56.80
37456;DHT22;23316;50.718;7.328;2022-11-20T10:28:10;8.50;56.70
37456;DHT22;23316;50.718;7.328;2022-11-20T10:30:44;8.60;56.60
37456;DHT22;23316;50.718;7.328;2022-11-20T10:33:17;8.60;56.50
37456;DHT22;23316;50.718;7.328;2022-11-20T10:35:52;8.60;56.50
37456;DHT22;23316;50.718;7.328;2022-11-20T10:38:20;8.60;56.40
37456;DHT22;23316;50.718;7.328;2022-11-20T10:40:51;8.70;56.50
37456;DHT22;23316;50.718;7.328;2022-11-20T10:43:24;8.70;56.40
37456;DHT22;23316;50.718;7.328;2022-11-20T10:45:58;8.70;56.40
37456;DHT22;23316;50.718;7.328;2022-11-20T10:48:28;8.70;56.40
37456;DHT22;23316;50.718;7.328;2022-11-20T10:53:58;8.80;56.40
37456;DHT22;23316;50.718;7.328;2022-11-20T10:56:35;8.80;56.30
37456;DHT22;23316;50.718;7.328;2022-11-20T10:59:33;8.80;56.40
37456;DHT22;23316;50.718;7.328;2022-11-20T11:02:15;8.80;56.40
37456;DHT22;23316;50.718;7.328;2022-11-20T11:04:45;8.90;56.40
37456;DHT22;23316;50.718;7.328;2022-11-20T11:07:16;8.90;56.20
37456;DHT22;23316;50.718;7.328;2022-11-20T11:09:48;8.90;56.10
37456;DHT22;23316;50.718;7.328;2022-11-20T11:12:16;8.90;56.10
37456;DHT22;23316;50.718;7.328;2022-11-20T11:14:46;8.90;56.10
37456;DHT22;23316;50.718;7.328;2022-11-20T11:17:26;8.90;56.20
37456;DHT22;23316;50.718;7.328;2022-11-20T11:20:02;8.90;56.20
37456;DHT22;23316;50.718;7.328;2022-11-20T11:22:32;9.00;56.30
37456;DHT22;23316;50.718;7.328;2022-11-20T11:25:00;9.00;56.30
37456;DHT22;23316;50.718;7.328;2022-11-20T11:27:28;9.00;56.20
37456;DHT22;23316;50.718;7.328;2022-11-20T11:30:11;9.00;56.20
37456;DHT22;23316;50.718;7.328;2022-11-20T11:32:39;9.00;56.20
37456;DHT22;23316;50.718;7.328;2022-11-20T11:35:19;9.10;56.20
37456;DHT22;23316;50.718;7.328;2022-11-20T11:37:48;9.10;56.20
37456;DHT22;23316;50.718;7.328;2022-11-20T11:40:18;9.10;56.20
37456;DHT22;23316;50.718;7.328;2022-11-20T11:42:52;9.10;56.30
37456;DHT22;23316;50.718;7.328;2022-11-20T11:45:21;9.10;56.20
37456;DHT22;23316;50.718;7.328;2022-11-20T11:47:48;9.20;56.30
37456;DHT22;23316;50.718;7.328;2022-11-20T11:50:19;9.20;56.30
37456;DHT22;23316;50.718;7.328;2022-11-20T11:52:54;9.20;56.20
37456;DHT22;23316;50.718;7.328;2022-11-20T11:55:29;9.30;56.20
37456;DHT22;23316;50.718;7.328;2022-11-20T11:58:14;9.30;56.20
37456;DHT22;23316;50.718;7.328;2022-11-20T12:00:51;9.30;56.20
37456;DHT22;23316;50.718;7.328;2022-11-20T12:03:24;9.40;56.20
37456;DHT22;23316;50.718;7.328;2022-11-20T12:05:57;9.40;56.20
37456;DHT22;23316;50.718;7.328;2022-11-20T12:08:30;9.40;56.10
37456;DHT22;23316;50.718;7.328;2022-11-20T12:11:03;9.40;56.10
37456;DHT22;23316;50.718;7.328;2022-11-20T12:13:39;9.40;56.00
37456;DHT22;23316;50.718;7.328;2022-11-20T12:16:11;9.50;56.00
37456;DHT22;23316;50.718;7.328;2022-11-20T12:18:39;9.50;56.00
37456;DHT22;23316;50.718;7.328;2022-11-20T12:21:17;9.50;56.00
37456;DHT22;23316;50.718;7.328;2022-11-20T12:23:58;9.50;56.10
37456;DHT22;23316;50.718;7.328;2022-11-20T12:26:39;9.50;56.10
37456;DHT22;23316;50.718;7.328;2022-11-20T12:29:13;9.60;56.20
37456;DHT22;23316;50.718;7.328;2022-11-20T12:31:54;9.60;56.10
37456;DHT22;23316;50.718;7.328;2022-11-20T12:34:33;9.60;56.10
37456;DHT22;23316;50.718;7.328;2022-11-20T12:37:12;9.60;56.00
37456;DHT22;23316;50.718;7.328;2022-11-20T12:39:43;9.60;56.10
37456;DHT22;23316;50.718;7.328;2022-11-20T12:42:33;9.70;56.10
37456;DHT22;23316;50.718;7.328;2022-11-20T12:48:42;9.70;56.00
37456;DHT22;23316;50.718;7.328;2022-11-20T12:51:16;9.70;56.00
37456;DHT22;23316;50.718;7.328;2022-11-20T12:53:54;9.80;56.10
37456;DHT22;23316;50.718;7.328;2022-11-20T12:56:35;9.80;56.10
37456;DHT22;23316;50.718;7.328;2022-11-20T12:59:17;9.80;56.10
37456;DHT22;23316;50.718;7.328;2022-11-20T13:01:50;9.80;56.20
37456;DHT22;23316;50.718;7.328;2022-11-20T13:04:39;9.80;56.20
37456;DHT22;23316;50.718;7.328;2022-11-20T13:07:16;9.80;56.30
37456;DHT22;23316;50.718;7.328;2022-11-20T13:09:46;9.80;56.30
37456;DHT22;23316;50.718;7.328;2022-11-20T13:12:19;9.90;56.30
37456;DHT22;23316;50.718;7.328;2022-11-20T13:14:52;9.90;56.40
37456;DHT22;23316;50.718;7.328;2022-11-20T13:17:27;9.90;56.30
37456;DHT22;23316;50.718;7.328;2022-11-20T13:19:58;9.90;56.30
37456;DHT22;23316;50.718;7.328;2022-11-20T13:22:26;9.90;56.30
37456;DHT22;23316;50.718;7.328;2022-11-20T13:24:53;9.90;56.30
37456;DHT22;23316;50.718;7.328;2022-11-20T13:27:23;10.00;56.40
37456;DHT22;23316;50.718;7.328;2022-11-20T13:30:03;10.00;56.40
37456;DHT22;23316;50.718;7.328;2022-11-20T13:32:48;10.00;56.50
37456;DHT22;23316;50.718;7.328;2022-11-20T13:35:28;10.00;56.60
37456;DHT22;23316;50.718;7.328;2022-11-20T13:38:04;10.00;56.60
37456;DHT22;23316;50.718;7.328;2022-11-20T13:40:32;10.10;56.70
37456;DHT22;23316;50.718;7.328;2022-11-20T13:43:11;10.10;56.60
37456;DHT22;23316;50.718;7.328;2022-11-20T13:45:42;10.10;56.70
37456;DHT22;23316;50.718;7.328;2022-11-20T13:48:21;10.10;56.70
37456;DHT22;23316;50.718;7.328;2022-11-20T13:50:56;10.10;56.80
37456;DHT22;23316;50.718;7.328;2022-11-20T13:53:37;10.10;56.80
37456;DHT22;23316;50.718;7.328;2022-11-20T13:56:18;10.10;56.70
37456;DHT22;23316;50.718;7.328;2022-11-20T13:58:59;10.20;56.70
37456;DHT22;23316;50.718;7.328;2022-11-20T14:01:30;10.20;56.70
37456;DHT22;23316;50.718;7.328;2022-11-20T14:03:59;10.20;56.70
37456;DHT22;23316;50.718;7.328;2022-11-20T14:06:28;10.20;56.70
37456;DHT22;23316;50.718;7.328;2022-11-20T14:08:56;10.20;56.70
37456;DHT22;23316;50.718;7.328;2022-11-20T14:11:24;10.20;56.80
37456;DHT22;23316;50.718;7.328;2022-11-20T14:13:57;10.20;56.80
37456;DHT22;23316;50.718;7.328;2022-11-20T14:16:26;10.20;56.80
37456;DHT22;23316;50.718;7.328;2022-11-20T14:18:55;10.30;56.90
37456;DHT22;23316;50.718;7.328;2022-11-20T14:21:24;10.30;56.90
37456;DHT22;23316;50.718;7.328;2022-11-20T14:23:53;10.30;56.90
37456;DHT22;23316;50.718;7.328;2022-11-20T14:26:21;10.30;56.90
37456;DHT22;23316;50.718;7.328;2022-11-20T14:28:50;10.30;56.90
37456;DHT22;23316;50.718;7.328;2022-11-20T14:31:23;10.30;56.90
37456;DHT22;23316;50.718;7.328;2022-11-20T14:33:52;10.30;56.80
37456;DHT22;23316;50.718;7.328;2022-11-20T14:36:23;10.30;56.80
37456;DHT22;23316;50.718;7.328;2022-11-20T14:38:51;10.30;56.80
37456;DHT22;23316;50.718;7.328;2022-11-20T14:41:21;10.30;56.80
37456;DHT22;23316;50.718;7.328;2022-11-20T14:43:52;10.30;56.90
37456;DHT22;23316;50.718;7.328;2022-11-20T14:46:22;10.30;56.90
37456;DHT22;23316;50.718;7.328;2022-11-20T14:48:51;10.30;56.90
37456;DHT22;23316;50.718;7.328;2022-11-20T14:51:27;10.30;56.80
37456;DHT22;23316;50.718;7.328;2022-11-20T14:54:07;10.30;56.80
37456;DHT22;23316;50.718;7.328;2022-11-20T14:56:35;10.30;56.80
37456;DHT22;23316;50.718;7.328;2022-11-20T14:59:02;10.30;56.80
37456;DHT22;23316;50.718;7.328;2022-11-20T15:01:32;10.30;56.80
37456;DHT22;23316;50.718;7.328;2022-11-20T15:04:02;10.30;56.80
37456;DHT22;23316;50.718;7.328;2022-11-20T15:06:32;10.30;56.80
37456;DHT22;23316;50.718;7.328;2022-11-20T15:08:59;10.30;56.80
37456;DHT22;23316;50.718;7.328;2022-11-20T15:11:29;10.30;56.90
37456;DHT22;23316;50.718;7.328;2022-11-20T15:13:58;10.30;56.90
37456;DHT22;23316;50.718;7.328;2022-11-20T15:16:30;10.30;56.90
37456;DHT22;23316;50.718;7.328;2022-11-20T15:18:58;10.30;56.90
37456;DHT22;23316;50.718;7.328;2022-11-20T15:21:26;10.30;56.90
37456;DHT22;23316;50.718;7.328;2022-11-20T15:23:53;10.30;56.90
37456;DHT22;23316;50.718;7.328;2022-11-20T15:26:23;10.30;57.00
37456;DHT22;23316;50.718;7.328;2022-11-20T15:28:52;10.30;57.10
37456;DHT22;23316;50.718;7.328;2022-11-20T15:31:21;10.30;57.20
37456;DHT22;23316;50.718;7.328;2022-11-20T15:33:51;10.30;57.20
37456;DHT22;23316;50.718;7.328;2022-11-20T15:36:18;10.30;57.40
37456;DHT22;23316;50.718;7.328;2022-11-20T15:38:46;10.30;57.40
37456;DHT22;23316;50.718;7.328;2022-11-20T15:41:13;10.30;57.40
37456;DHT22;23316;50.718;7.328;2022-11-20T15:43:40;10.30;57.60
37456;DHT22;23316;50.718;7.328;2022-11-20T15:46:11;10.20;57.60
37456;DHT22;23316;50.718;7.328;2022-11-20T15:48:42;10.30;57.70
37456;DHT22;23316;50.718;7.328;2022-11-20T15:51:22;10.20;57.70
37456;DHT22;23316;50.718;7.328;2022-11-20T15:53:51;10.20;58.30
37456;DHT22;23316;50.718;7.328;2022-11-20T15:56:19;10.20;57.70
37456;DHT22;23316;50.718;7.328;2022-11-20T15:58:46;10.20;57.80
37456;DHT22;23316;50.718;7.328;2022-11-20T16:01:15;10.20;57.80
37456;DHT22;23316;50.718;7.328;2022-11-20T16:03:43;10.30;57.90
37456;DHT22;23316;50.718;7.328;2022-11-20T16:06:10;10.20;58.00
37456;DHT22;23316;50.718;7.328;2022-11-20T16:08:39;10.20;58.00
37456;DHT22;23316;50.718;7.328;2022-11-20T16:11:06;10.20;58.00